sensor_id;sensor_type;location;lat;lon;timestamp;pressure;altitude;pressure_sealevel;temperature;humidity
13690;BME280;6917;52.194;9.894;2023-01-29T00:01:49;101645.25;;;-0.65;96.51
13690;BME280;6917;52.194;9.894;2023-01-29T00:04:14;101640.31;;;-0.68;96.80
13690;BME280;6917;52.194;9.894;2023-01-29T00:06:39;101631.63;;;-0.70;97.32
13690;BME280;6917;52.194;9.894;2023-01-29T00:09:05;101634.09;;;-0.69;96.83
13690;BME280;6917;52.194;9.894;2023-01-29T00:11:30;101631.22;;;-0.67;96.86
13690;BME280;6917;52.194;9.894;2023-01-29T00:13:56;101620.06;;;-0.64;96.80
13690;BME280;6917;52.194;9.894;2023-01-29T00:16:22;101624.19;;;-0.62;96.33
13690;BME280;6917;52.194;9.894;2023-01-29T00:18:47;101625.44;;;-0.57;96.55
13690;BME280;6917;52.194;9.894;2023-01-29T00:21:15;101618.00;;;-0.55;96.43
13690;BME280;6917;52.194;9.894;2023-01-29T00:23:42;101619.44;;;-0.53;96.20
13690;BME280;6917;52.194;9.894;2023-01-29T00:26:08;101617.75;;;-0.47;96.08
13690;BME280;6917;52.194;9.894;2023-01-29T00:28:34;101622.31;;;-0.48;96.75
13690;BME280;6917;52.194;9.894;2023-01-29T00:31:10;101617.75;;;-0.47;96.59
13690;BME280;6917;52.194;9.894;2023-01-29T00:33:36;101620.22;;;-0.46;96.50
13690;BME280;6917;52.194;9.894;2023-01-29T00:36:06;101617.97;;;-0.42;96.74
13690;BME280;6917;52.194;9.894;2023-01-29T00:38:32;101616.31;;;-0.43;96.43
13690;BME280;6917;52.194;9.894;2023-01-29T00:41:04;101624.38;;;-0.43;96.44
13690;BME280;6917;52.194;9.894;2023-01-29T00:43:48;101623.75;;;-0.45;95.85
13690;BME280;6917;52.194;9.894;2023-01-29T00:46:32;101617.75;;;-0.47;96.35
13690;BME280;6917;52.194;9.894;2023-01-29T00:48:57;101613.84;;;-0.51;96.12
13690;BME280;6917;52.194;9.894;2023-01-29T00:51:22;101612.41;;;-0.54;96.07
13690;BME280;6917;52.194;9.894;2023-01-29T00:53:47;101612.03;;;-0.57;96.11
13690;BME280;6917;52.194;9.894;2023-01-29T00:56:13;101616.13;;;-0.62;96.54
13690;BME280;6917;52.194;9.894;2023-01-29T00:58:38;101613.88;;;-0.65;96.68
13690;BME280;6917;52.194;9.894;2023-01-29T01:01:03;101617.38;;;-0.64;97.22
13690;BME280;6917;52.194;9.894;2023-01-29T01:03:29;101617.59;;;-0.66;97.20
13690;BME280;6917;52.194;9.894;2023-01-29T01:06:05;101620.06;;;-0.64;97.55
13690;BME280;6917;52.194;9.894;2023-01-29T01:08:31;101622.53;;;-0.63;97.98
13690;BME280;6917;52.194;9.894;2023-01-29T01:11:15;101627.06;;;-0.63;98.46
13690;BME280;6917;52.194;9.894;2023-01-29T01:13:41;101629.75;;;-0.63;98.26
13690;BME280;6917;52.194;9.894;2023-01-29T01:16:15;101632.66;;;-0.65;98.77
13690;BME280;6917;52.194;9.894;2023-01-29T01:18:42;101628.94;;;-0.70;98.86
13690;BME280;6917;52.194;9.894;2023-01-29T01:21:08;101624.41;;;-0.76;98.93
13690;BME280;6917;52.194;9.894;2023-01-29T01:23:33;101625.66;;;-0.85;98.71
13690;BME280;6917;52.194;9.894;2023-01-29T01:25:59;101619.25;;;-0.91;99.03
13690;BME280;6917;52.194;9.894;2023-01-29T01:28:24;101613.47;;;-0.95;99.55
13690;BME280;6917;52.194;9.894;2023-01-29T01:30:50;101598.00;;;-0.99;100.00
13690;BME280;6917;52.194;9.894;2023-01-29T01:33:15;101608.53;;;-0.98;99.83
13690;BME280;6917;52.194;9.894;2023-01-29T01:35:40;101605.03;;;-0.98;99.51
13690;BME280;6917;52.194;9.894;2023-01-29T01:38:06;101591.63;;;-0.98;99.81
13690;BME280;6917;52.194;9.894;2023-01-29T01:40:31;101588.94;;;-0.98;99.84
13690;BME280;6917;52.194;9.894;2023-01-29T01:42:58;101589.56;;;-0.96;99.26
13690;BME280;6917;52.194;9.894;2023-01-29T01:53:19;101571.56;;;-0.89;99.29
13690;BME280;6917;52.194;9.894;2023-01-29T01:55:50;101572.84;;;-0.85;99.07
13690;BME280;6917;52.194;9.894;2023-01-29T01:58:23;101581.09;;;-0.86;98.26
13690;BME280;6917;52.194;9.894;2023-01-29T02:00:50;101570.75;;;-0.90;98.80
13690;BME280;6917;52.194;9.894;2023-01-29T02:03:18;101571.78;;;-0.91;98.33
13690;BME280;6917;52.194;9.894;2023-01-29T02:06:02;101567.06;;;-0.95;98.60
13690;BME280;6917;52.194;9.894;2023-01-29T02:09:10;101569.75;;;-0.95;99.23
13690;BME280;6917;52.194;9.894;2023-01-29T02:11:57;101573.06;;;-1.00;98.79
13690;BME280;6917;52.194;9.894;2023-01-29T02:14:22;101576.94;;;-1.02;99.16
13690;BME280;6917;52.194;9.894;2023-01-29T02:16:49;101571.38;;;-1.07;98.81
13690;BME280;6917;52.194;9.894;2023-01-29T02:22:32;101586.66;;;-1.08;99.32
13690;BME280;6917;52.194;9.894;2023-01-29T02:24:54;101593.88;;;-1.08;98.72
13690;BME280;6917;52.194;9.894;2023-01-29T02:27:30;101592.22;;;-1.09;99.60
13690;BME280;6917;52.194;9.894;2023-01-29T02:30:07;101592.22;;;-1.09;99.23
13690;BME280;6917;52.194;9.894;2023-01-29T02:35:18;101602.34;;;-1.11;99.29
13690;BME280;6917;52.194;9.894;2023-01-29T02:38:06;101607.69;;;-1.11;99.01
13690;BME280;6917;52.194;9.894;2023-01-29T02:40:40;101609.34;;;-1.10;99.23
13690;BME280;6917;52.194;9.894;2023-01-29T02:45:50;101614.91;;;-1.05;99.39
13690;BME280;6917;52.194;9.894;2023-01-29T02:48:19;101612.47;;;-1.00;99.06
13690;BME280;6917;52.194;9.894;2023-01-29T02:51:01;101605.63;;;-0.96;98.51
13690;BME280;6917;52.194;9.894;2023-01-29T02:53:51;101614.31;;;-0.94;98.75
13690;BME280;6917;52.194;9.894;2023-01-29T02:56:27;101626.28;;;-0.97;98.21
13690;BME280;6917;52.194;9.894;2023-01-29T02:59:00;101625.44;;;-0.97;98.36
13690;BME280;6917;52.194;9.894;2023-01-29T03:01:34;101620.09;;;-0.97;98.53
13690;BME280;6917;52.194;9.894;2023-01-29T03:04:10;101614.09;;;-0.99;98.75
13690;BME280;6917;52.194;9.894;2023-01-29T03:06:41;101629.16;;;-0.98;98.89
13690;BME280;6917;52.194;9.894;2023-01-29T03:09:16;101619.69;;;-1.01;99.37
13690;BME280;6917;52.194;9.894;2023-01-29T03:11:48;101625.44;;;-1.04;99.41
13690;BME280;6917;52.194;9.894;2023-01-29T03:14:21;101610.97;;;-1.03;99.63
13690;BME280;6917;52.194;9.894;2023-01-29T03:16:51;101609.34;;;-1.04;99.78
13690;BME280;6917;52.194;9.894;2023-01-29T03:19:18;101595.09;;;-1.04;100.00
13690;BME280;6917;52.194;9.894;2023-01-29T03:21:50;101594.91;;;-1.03;100.00
13690;BME280;6917;52.194;9.894;2023-01-29T03:27:20;101593.88;;;-1.02;100.00
13690;BME280;6917;52.194;9.894;2023-01-29T03:30:07;101588.31;;;-1.00;100.00
13690;BME280;6917;52.194;9.894;2023-01-29T03:32:54;101580.88;;;-0.98;100.00
13690;BME280;6917;52.194;9.894;2023-01-29T03:35:24;101586.03;;;-0.97;100.00
13690;BME280;6917;52.194;9.894;2023-01-29T03:38:02;101583.56;;;-0.98;100.00
13690;BME280;6917;52.194;9.894;2023-01-29T03:40:34;101588.31;;;-0.94;100.00
13690;BME280;6917;52.194;9.894;2023-01-29T03:43:09;101591.38;;;-0.90;100.00
13690;BME280;6917;52.194;9.894;2023-01-29T03:48:31;101585.22;;;-0.84;100.00
13690;BME280;6917;52.194;9.894;2023-01-29T03:53:50;101585.81;;;-0.82;100.00
13690;BME280;6917;52.194;9.894;2023-01-29T03:56:35;101575.91;;;-0.81;100.00
13690;BME280;6917;52.194;9.894;2023-01-29T03:59:17;101576.97;;;-0.82;99.99
13690;BME280;6917;52.194;9.894;2023-01-29T04:01:47;101566.22;;;-0.82;100.00
13690;BME280;6917;52.194;9.894;2023-01-29T04:04:32;101564.97;;;-0.80;99.63
13690;BME280;6917;52.194;9.894;2023-01-29T04:07:15;101570.13;;;-0.78;99.76
13690;BME280;6917;52.194;9.894;2023-01-29T04:09:50;101561.03;;;-0.77;99.18
13690;BME280;6917;52.194;9.894;2023-01-29T04:12:21;101563.31;;;-0.74;99.29
13690;BME280;6917;52.194;9.894;2023-01-29T04:14:49;101559.19;;;-0.77;99.13
13690;BME280;6917;52.194;9.894;2023-01-29T04:17:22;101548.25;;;-0.75;99.30
13690;BME280;6917;52.194;9.894;2023-01-29T04:19:49;101543.69;;;-0.75;99.17
13690;BME280;6917;52.194;9.894;2023-01-29T04:22:22;101533.19;;;-0.76;99.05
13690;BME280;6917;52.194;9.894;2023-01-29T04:24:49;101530.28;;;-0.75;98.62
13690;BME280;6917;52.194;9.894;2023-01-29T04:30:14;101531.13;;;-0.68;98.40
13690;BME280;6917;52.194;9.894;2023-01-29T04:32:56;101525.31;;;-0.65;97.96
13690;BME280;6917;52.194;9.894;2023-01-29T04:35:31;101513.34;;;-0.62;98.37
13690;BME280;6917;52.194;9.894;2023-01-29T04:41:04;101511.03;;;-0.58;97.62
13690;BME280;6917;52.194;9.894;2023-01-29T04:44:09;101505.88;;;-0.60;97.59
13690;BME280;6917;52.194;9.894;2023-01-29T04:46:38;101493.72;;;-0.63;97.19
13690;BME280;6917;52.194;9.894;2023-01-29T04:49:20;101481.34;;;-0.64;97.39
13690;BME280;6917;52.194;9.894;2023-01-29T04:57:52;101468.53;;;-0.62;97.44
13690;BME280;6917;52.194;9.894;2023-01-29T05:00:23;101473.09;;;-0.62;97.60
13690;BME280;6917;52.194;9.894;2023-01-29T05:02:51;101474.13;;;-0.63;97.24
13690;BME280;6917;52.194;9.894;2023-01-29T05:05:18;101480.09;;;-0.61;97.05
13690;BME280;6917;52.194;9.894;2023-01-29T05:07:45;101479.06;;;-0.60;96.93
13690;BME280;6917;52.194;9.894;2023-01-29T05:10:13;101481.53;;;-0.58;97.19
13690;BME280;6917;52.194;9.894;2023-01-29T05:12:40;101469.78;;;-0.57;97.25
13690;BME280;6917;52.194;9.894;2023-01-29T05:15:11;101488.13;;;-0.54;96.74
13690;BME280;6917;52.194;9.894;2023-01-29T05:17:39;101477.19;;;-0.53;97.19
13690;BME280;6917;52.194;9.894;2023-01-29T05:20:05;101472.84;;;-0.54;97.01
13690;BME280;6917;52.194;9.894;2023-01-29T05:22:31;101491.66;;;-0.54;96.64
13690;BME280;6917;52.194;9.894;2023-01-29T05:24:56;101490.81;;;-0.54;96.50
13690;BME280;6917;52.194;9.894;2023-01-29T05:27:28;101485.44;;;-0.54;96.44
13690;BME280;6917;52.194;9.894;2023-01-29T05:30:14;101482.78;;;-0.54;96.53
13690;BME280;6917;52.194;9.894;2023-01-29T05:32:40;101491.66;;;-0.54;97.23
13690;BME280;6917;52.194;9.894;2023-01-29T05:35:05;101484.41;;;-0.53;97.19
13690;BME280;6917;52.194;9.894;2023-01-29T05:37:31;101481.13;;;-0.55;97.11
13690;BME280;6917;52.194;9.894;2023-01-29T05:39:56;101484.63;;;-0.55;96.99
13690;BME280;6917;52.194;9.894;2023-01-29T05:42:22;101480.69;;;-0.52;97.05
13690;BME280;6917;52.194;9.894;2023-01-29T05:44:48;101489.78;;;-0.53;96.69
13690;BME280;6917;52.194;9.894;2023-01-29T05:47:18;101492.69;;;-0.55;97.02
13690;BME280;6917;52.194;9.894;2023-01-29T05:49:43;101495.59;;;-0.56;96.78
13690;BME280;6917;52.194;9.894;2023-01-29T05:52:08;101500.13;;;-0.57;96.97
13690;BME280;6917;52.194;9.894;2023-01-29T05:54:34;101491.25;;;-0.57;96.99
13690;BME280;6917;52.194;9.894;2023-01-29T05:56:59;101500.31;;;-0.58;97.21
13690;BME280;6917;52.194;9.894;2023-01-29T05:59:24;101499.50;;;-0.59;97.01
13690;BME280;6917;52.194;9.894;2023-01-29T06:01:49;101490.63;;;-0.60;97.09
13690;BME280;6917;52.194;9.894;2023-01-29T06:04:15;101497.84;;;-0.60;97.46
13690;BME280;6917;52.194;9.894;2023-01-29T06:06:40;101502.38;;;-0.61;97.29
13690;BME280;6917;52.194;9.894;2023-01-29T06:09:05;101501.97;;;-0.57;96.73
13690;BME280;6917;52.194;9.894;2023-01-29T06:11:31;101516.41;;;-0.58;96.80
13690;BME280;6917;52.194;9.894;2023-01-29T06:13:56;101511.03;;;-0.58;96.97
13690;BME280;6917;52.194;9.894;2023-01-29T06:16:21;101516.41;;;-0.58;97.09
13690;BME280;6917;52.194;9.894;2023-01-29T06:18:47;101511.03;;;-0.58;97.20
13690;BME280;6917;52.194;9.894;2023-01-29T06:21:12;101519.31;;;-0.60;96.80
13690;BME280;6917;52.194;9.894;2023-01-29T06:23:38;101514.97;;;-0.61;96.57
13690;BME280;6917;52.194;9.894;2023-01-29T06:26:06;101517.22;;;-0.58;96.48
13690;BME280;6917;52.194;9.894;2023-01-29T06:28:32;101514.75;;;-0.60;96.87
13690;BME280;6917;52.194;9.894;2023-01-29T06:30:59;101501.97;;;-0.57;96.61
13690;BME280;6917;52.194;9.894;2023-01-29T06:33:25;101494.94;;;-0.58;96.72
13690;BME280;6917;52.194;9.894;2023-01-29T06:36:02;101492.06;;;-0.57;96.60
13690;BME280;6917;52.194;9.894;2023-01-29T06:38:28;101501.13;;;-0.58;96.46
13690;BME280;6917;52.194;9.894;2023-01-29T06:40:54;101498.44;;;-0.58;96.99
13690;BME280;6917;52.194;9.894;2023-01-29T06:43:20;101499.91;;;-0.55;96.77
13690;BME280;6917;52.194;9.894;2023-01-29T06:45:54;101503.41;;;-0.55;96.80
13690;BME280;6917;52.194;9.894;2023-01-29T06:48:20;101503.41;;;-0.55;96.60
13690;BME280;6917;52.194;9.894;2023-01-29T06:50:46;101500.72;;;-0.55;96.03
13690;BME280;6917;52.194;9.894;2023-01-29T06:53:13;101501.56;;;-0.54;96.52
13690;BME280;6917;52.194;9.894;2023-01-29T06:55:39;101507.75;;;-0.54;96.08
13690;BME280;6917;52.194;9.894;2023-01-29T06:58:06;101511.25;;;-0.53;96.39
13690;BME280;6917;52.194;9.894;2023-01-29T07:00:31;101499.47;;;-0.52;96.73
13690;BME280;6917;52.194;9.894;2023-01-29T07:02:57;101498.66;;;-0.53;95.99
13690;BME280;6917;52.194;9.894;2023-01-29T07:05:22;101498.06;;;-0.55;96.05
13690;BME280;6917;52.194;9.894;2023-01-29T07:07:47;101516.00;;;-0.55;96.46
13690;BME280;6917;52.194;9.894;2023-01-29T07:10:13;101530.25;;;-0.55;95.92
13690;BME280;6917;52.194;9.894;2023-01-29T07:12:38;101530.47;;;-0.56;96.33
13690;BME280;6917;52.194;9.894;2023-01-29T07:15:04;101524.28;;;-0.57;95.91
13690;BME280;6917;52.194;9.894;2023-01-29T07:17:29;101542.03;;;-0.56;96.33
13690;BME280;6917;52.194;9.894;2023-01-29T07:19:54;101536.66;;;-0.56;95.89
13690;BME280;6917;52.194;9.894;2023-01-29T07:22:20;101541.81;;;-0.54;96.35
13690;BME280;6917;52.194;9.894;2023-01-29T07:24:45;101537.28;;;-0.54;96.23
13690;BME280;6917;52.194;9.894;2023-01-29T07:27:12;101538.09;;;-0.53;96.27
13690;BME280;6917;52.194;9.894;2023-01-29T07:29:37;101534.38;;;-0.52;96.78
13690;BME280;6917;52.194;9.894;2023-01-29T07:32:03;101539.34;;;-0.56;96.29
13690;BME280;6917;52.194;9.894;2023-01-29T07:34:28;101530.03;;;-0.60;97.00
13690;BME280;6917;52.194;9.894;2023-01-29T07:36:54;101528.59;;;-0.63;97.24
13690;BME280;6917;52.194;9.894;2023-01-29T07:39:21;101524.50;;;-0.65;97.25
13690;BME280;6917;52.194;9.894;2023-01-29T07:41:46;101523.66;;;-0.66;97.56
13690;BME280;6917;52.194;9.894;2023-01-29T07:44:11;101518.72;;;-0.69;97.96
13690;BME280;6917;52.194;9.894;2023-01-29T07:46:37;101513.16;;;-0.67;98.03
13690;BME280;6917;52.194;9.894;2023-01-29T07:49:02;101497.28;;;-0.69;98.19
13690;BME280;6917;52.194;9.894;2023-01-29T07:51:27;101499.53;;;-0.66;98.20
13690;BME280;6917;52.194;9.894;2023-01-29T07:53:52;101500.94;;;-0.63;97.93
13690;BME280;6917;52.194;9.894;2023-01-29T07:56:18;101498.88;;;-0.61;97.94
13690;BME280;6917;52.194;9.894;2023-01-29T07:58:43;101502.81;;;-0.64;98.42
13690;BME280;6917;52.194;9.894;2023-01-29T08:01:08;101497.88;;;-0.67;98.18
13690;BME280;6917;52.194;9.894;2023-01-29T08:03:34;101487.53;;;-0.63;98.52
13690;BME280;6917;52.194;9.894;2023-01-29T08:06:00;101481.75;;;-0.60;98.28
13690;BME280;6917;52.194;9.894;2023-01-29T08:08:26;101466.25;;;-0.58;98.44
13690;BME280;6917;52.194;9.894;2023-01-29T08:10:51;101456.97;;;-0.55;98.45
13690;BME280;6917;52.194;9.894;2023-01-29T08:13:17;101451.78;;;-0.50;98.63
13690;BME280;6917;52.194;9.894;2023-01-29T08:15:43;101446.78;;;-0.47;99.19
13690;BME280;6917;52.194;9.894;2023-01-29T08:18:12;101454.84;;;-0.40;99.15
13690;BME280;6917;52.194;9.894;2023-01-29T08:20:38;101456.25;;;-0.38;99.31
13690;BME280;6917;52.194;9.894;2023-01-29T08:23:06;101452.75;;;-0.38;99.23
13690;BME280;6917;52.194;9.894;2023-01-29T08:25:32;101461.41;;;-0.36;98.79
13690;BME280;6917;52.194;9.894;2023-01-29T08:27:58;101468.81;;;-0.32;99.36
13690;BME280;6917;52.194;9.894;2023-01-29T08:30:26;101452.72;;;-0.32;99.33
13690;BME280;6917;52.194;9.894;2023-01-29T08:32:52;101454.34;;;-0.31;99.46
13690;BME280;6917;52.194;9.894;2023-01-29T08:35:17;101455.81;;;-0.28;99.47
13690;BME280;6917;52.194;9.894;2023-01-29T08:37:43;101462.00;;;-0.27;99.42
13690;BME280;6917;52.194;9.894;2023-01-29T08:40:09;101463.44;;;-0.25;99.64
13690;BME280;6917;52.194;9.894;2023-01-29T08:42:36;101454.34;;;-0.24;99.96
13690;BME280;6917;52.194;9.894;2023-01-29T08:45:01;101454.34;;;-0.24;99.45
13690;BME280;6917;52.194;9.894;2023-01-29T08:47:27;101459.72;;;-0.24;99.82
13690;BME280;6917;52.194;9.894;2023-01-29T08:49:52;101458.88;;;-0.24;99.68
13690;BME280;6917;52.194;9.894;2023-01-29T08:52:17;101454.34;;;-0.24;99.93
13690;BME280;6917;52.194;9.894;2023-01-29T08:54:43;101460.75;;;-0.25;99.81
13690;BME280;6917;52.194;9.894;2023-01-29T08:57:08;101458.06;;;-0.25;100.00
13690;BME280;6917;52.194;9.894;2023-01-29T08:59:33;101460.53;;;-0.23;99.95
13690;BME280;6917;52.194;9.894;2023-01-29T09:01:58;101453.47;;;-0.18;100.00
13690;BME280;6917;52.194;9.894;2023-01-29T09:04:24;101450.78;;;-0.18;100.00
13690;BME280;6917;52.194;9.894;2023-01-29T09:06:49;101467.50;;;-0.16;100.00
13690;BME280;6917;52.194;9.894;2023-01-29T09:09:14;101471.81;;;-0.15;100.00
13690;BME280;6917;52.194;9.894;2023-01-29T09:11:40;101459.25;;;-0.14;100.00
13690;BME280;6917;52.194;9.894;2023-01-29T09:14:05;101460.47;;;-0.17;100.00
13690;BME280;6917;52.194;9.894;2023-01-29T09:16:30;101442.34;;;-0.21;100.00
13690;BME280;6917;52.194;9.894;2023-01-29T09:18:56;101444.63;;;-0.25;100.00
13690;BME280;6917;52.194;9.894;2023-01-29T09:21:21;101450.84;;;-0.24;100.00
13690;BME280;6917;52.194;9.894;2023-01-29T09:23:46;101438.22;;;-0.24;100.00
13690;BME280;6917;52.194;9.894;2023-01-29T09:26:12;101438.59;;;-0.20;100.00
13690;BME280;6917;52.194;9.894;2023-01-29T09:28:37;101431.97;;;-0.18;100.00
13690;BME280;6917;52.194;9.894;2023-01-29T09:31:02;101422.88;;;-0.17;100.00
13690;BME280;6917;52.194;9.894;2023-01-29T09:33:28;101426.22;;;-0.21;100.00
13690;BME280;6917;52.194;9.894;2023-01-29T09:35:54;101409.91;;;-0.20;100.00
13690;BME280;6917;52.194;9.894;2023-01-29T09:38:20;101404.09;;;-0.17;100.00
13690;BME280;6917;52.194;9.894;2023-01-29T09:41:07;101404.91;;;-0.16;100.00
13690;BME280;6917;52.194;9.894;2023-01-29T09:49:02;101393.69;;;-0.07;100.00
13690;BME280;6917;52.194;9.894;2023-01-29T09:51:34;101388.69;;;-0.03;100.00
13690;BME280;6917;52.194;9.894;2023-01-29T09:54:13;101382.69;;;0.02;100.00
13690;BME280;6917;52.194;9.894;2023-01-29T09:56:41;101386.59;;;0.06;100.00
13690;BME280;6917;52.194;9.894;2023-01-29T09:59:10;101378.75;;;0.04;100.00
13690;BME280;6917;52.194;9.894;2023-01-29T10:15:28;101373.41;;;0.22;100.00
13690;BME280;6917;52.194;9.894;2023-01-29T10:26:12;101366.97;;;0.30;100.00
13690;BME280;6917;52.194;9.894;2023-01-29T10:28:43;101364.88;;;0.32;100.00
13690;BME280;6917;52.194;9.894;2023-01-29T10:31:17;101377.41;;;0.38;100.00
13690;BME280;6917;52.194;9.894;2023-01-29T10:33:51;101366.66;;;0.38;100.00
13690;BME280;6917;52.194;9.894;2023-01-29T10:36:48;101379.84;;;0.46;100.00
13690;BME280;6917;52.194;9.894;2023-01-29T10:39:18;101386.47;;;0.44;100.00
13690;BME280;6917;52.194;9.894;2023-01-29T10:42:23;101382.28;;;0.48;100.00
13690;BME280;6917;52.194;9.894;2023-01-29T10:45:19;101382.06;;;0.49;100.00
13690;BME280;6917;52.194;9.894;2023-01-29T10:50:39;101384.75;;;0.49;99.89
13690;BME280;6917;52.194;9.894;2023-01-29T10:53:51;101376.09;;;0.47;99.58
13690;BME280;6917;52.194;9.894;2023-01-29T10:56:32;101367.44;;;0.45;99.37
13690;BME280;6917;52.194;9.894;2023-01-29T11:01:45;101358.91;;;0.48;98.91
13690;BME280;6917;52.194;9.894;2023-01-29T11:04:11;101356.38;;;0.53;99.30
13690;BME280;6917;52.194;9.894;2023-01-29T11:06:37;101347.25;;;0.54;98.67
13690;BME280;6917;52.194;9.894;2023-01-29T11:11:54;101337.28;;;0.62;97.96
13690;BME280;6917;52.194;9.894;2023-01-29T11:14:30;101331.44;;;0.65;97.90
13690;BME280;6917;52.194;9.894;2023-01-29T11:16:57;101315.53;;;0.63;97.19
13690;BME280;6917;52.194;9.894;2023-01-29T11:19:38;101317.41;;;0.63;96.83
13690;BME280;6917;52.194;9.894;2023-01-29T11:22:04;101311.56;;;0.66;96.62
13690;BME280;6917;52.194;9.894;2023-01-29T11:24:29;101308.44;;;0.69;96.56
13690;BME280;6917;52.194;9.894;2023-01-29T11:26:58;101304.28;;;0.73;96.66
13690;BME280;6917;52.194;9.894;2023-01-29T11:29:36;101292.66;;;0.72;96.59
13690;BME280;6917;52.194;9.894;2023-01-29T11:32:05;101297.03;;;0.73;96.05
13690;BME280;6917;52.194;9.894;2023-01-29T11:34:32;101290.81;;;0.73;96.05
13690;BME280;6917;52.194;9.894;2023-01-29T11:36:59;101295.75;;;0.76;95.79
13690;BME280;6917;52.194;9.894;2023-01-29T11:39:27;101289.91;;;0.79;95.63
13690;BME280;6917;52.194;9.894;2023-01-29T11:41:56;101279.75;;;0.81;95.28
13690;BME280;6917;52.194;9.894;2023-01-29T11:44:33;101285.59;;;0.78;94.97
13690;BME280;6917;52.194;9.894;2023-01-29T11:49:39;101294.09;;;0.75;94.81
13690;BME280;6917;52.194;9.894;2023-01-29T11:52:09;101290.50;;;0.81;95.08
13690;BME280;6917;52.194;9.894;2023-01-29T11:54:49;101287.00;;;0.80;95.23
13690;BME280;6917;52.194;9.894;2023-01-29T11:57:31;101278.09;;;0.80;95.38
13690;BME280;6917;52.194;9.894;2023-01-29T12:00:03;101267.94;;;0.82;95.35
13690;BME280;6917;52.194;9.894;2023-01-29T12:02:37;101264.19;;;0.83;94.81
13690;BME280;6917;52.194;9.894;2023-01-29T12:05:17;101263.31;;;0.89;94.65
13690;BME280;6917;52.194;9.894;2023-01-29T12:07:47;101263.53;;;0.87;94.48
13690;BME280;6917;52.194;9.894;2023-01-29T12:10:32;101260.84;;;0.87;94.01
13690;BME280;6917;52.194;9.894;2023-01-29T12:15:29;101255.13;;;0.96;94.25
13690;BME280;6917;52.194;9.894;2023-01-29T12:18:02;101238.31;;;1.00;94.00
13690;BME280;6917;52.194;9.894;2023-01-29T12:20:39;101238.31;;;1.00;93.85
13690;BME280;6917;52.194;9.894;2023-01-29T12:23:18;101220.66;;;1.04;93.24
13690;BME280;6917;52.194;9.894;2023-01-29T12:25:55;101230.03;;;1.13;93.56
13690;BME280;6917;52.194;9.894;2023-01-29T12:28:35;101225.72;;;1.12;93.02
13690;BME280;6917;52.194;9.894;2023-01-29T12:33:40;101215.09;;;1.17;92.44
13690;BME280;6917;52.194;9.894;2023-01-29T12:36:20;101211.78;;;1.15;92.56
13690;BME280;6917;52.194;9.894;2023-01-29T12:38:47;101209.34;;;1.14;92.17
13690;BME280;6917;52.194;9.894;2023-01-29T12:41:19;101209.78;;;1.11;92.05
13690;BME280;6917;52.194;9.894;2023-01-29T12:43:51;101211.44;;;1.12;92.08
13690;BME280;6917;52.194;9.894;2023-01-29T12:46:23;101205.13;;;1.06;91.82
13690;BME280;6917;52.194;9.894;2023-01-29T12:48:51;101216.94;;;1.05;92.12
13690;BME280;6917;52.194;9.894;2023-01-29T12:51:23;101217.41;;;1.02;92.43
13690;BME280;6917;52.194;9.894;2023-01-29T12:53:59;101213.03;;;1.01;92.83
13690;BME280;6917;52.194;9.894;2023-01-29T12:56:48;101210.56;;;1.00;93.01
13690;BME280;6917;52.194;9.894;2023-01-29T12:59:29;101220.09;;;1.02;93.10
13690;BME280;6917;52.194;9.894;2023-01-29T13:02:00;101212.44;;;0.99;93.11
13690;BME280;6917;52.194;9.894;2023-01-29T13:04:34;101211.41;;;1.00;93.11
13690;BME280;6917;52.194;9.894;2023-01-29T13:07:25;101213.25;;;1.00;93.33
13690;BME280;6917;52.194;9.894;2023-01-29T13:10:06;101221.34;;;1.00;93.68
13690;BME280;6917;52.194;9.894;2023-01-29T13:12:34;101206.00;;;1.00;93.84
13690;BME280;6917;52.194;9.894;2023-01-29T13:15:05;101203.94;;;1.02;94.17
13690;BME280;6917;52.194;9.894;2023-01-29T13:17:44;101200.19;;;1.03;94.07
13690;BME280;6917;52.194;9.894;2023-01-29T13:20:16;101199.16;;;1.04;94.27
13690;BME280;6917;52.194;9.894;2023-01-29T13:22:44;101197.50;;;1.03;94.15
13690;BME280;6917;52.194;9.894;2023-01-29T13:25:16;101182.19;;;1.04;94.15
13690;BME280;6917;52.194;9.894;2023-01-29T13:27:43;101184.66;;;1.05;94.39
13690;BME280;6917;52.194;9.894;2023-01-29T13:30:31;101177.16;;;1.07;94.35
13690;BME280;6917;52.194;9.894;2023-01-29T13:32:59;101169.91;;;1.08;94.44
13690;BME280;6917;52.194;9.894;2023-01-29T13:35:40;101167.44;;;1.06;94.06
13690;BME280;6917;52.194;9.894;2023-01-29T13:38:27;101166.16;;;1.09;94.53
13690;BME280;6917;52.194;9.894;2023-01-29T13:40:59;101155.41;;;1.09;94.28
13690;BME280;6917;52.194;9.894;2023-01-29T13:43:26;101154.56;;;1.08;94.49
13690;BME280;6917;52.194;9.894;2023-01-29T13:45:52;101150.84;;;1.09;94.62
13690;BME280;6917;52.194;9.894;2023-01-29T13:48:29;101144.41;;;1.10;94.64
13690;BME280;6917;52.194;9.894;2023-01-29T13:51:02;101140.66;;;1.11;94.80
13690;BME280;6917;52.194;9.894;2023-01-29T13:53:37;101131.53;;;1.12;94.71
13690;BME280;6917;52.194;9.894;2023-01-29T13:58:55;101129.06;;;1.11;94.37
13690;BME280;6917;52.194;9.894;2023-01-29T14:06:44;101107.69;;;1.16;94.32
13690;BME280;6917;52.194;9.894;2023-01-29T14:11:57;101102.41;;;1.21;93.92
13690;BME280;6917;52.194;9.894;2023-01-29T14:17:17;101100.41;;;1.28;94.06
13690;BME280;6917;52.194;9.894;2023-01-29T14:20:36;101089.31;;;1.25;93.49
13690;BME280;6917;52.194;9.894;2023-01-29T14:22:36;101091.19;;;1.24;93.57
13690;BME280;6917;52.194;9.894;2023-01-29T14:25:03;101087.31;;;1.20;93.59
13690;BME280;6917;52.194;9.894;2023-01-29T14:27:30;101089.19;;;1.19;93.80
13690;BME280;6917;52.194;9.894;2023-01-29T14:30:06;101098.66;;;1.22;94.32
13690;BME280;6917;52.194;9.894;2023-01-29T14:32:37;101106.41;;;1.18;94.20
13690;BME280;6917;52.194;9.894;2023-01-29T14:35:21;101099.63;;;1.16;94.30
13690;BME280;6917;52.194;9.894;2023-01-29T14:37:50;101086.38;;;1.14;94.53
13690;BME280;6917;52.194;9.894;2023-01-29T14:40:23;101084.72;;;1.13;94.69
13690;BME280;6917;52.194;9.894;2023-01-29T14:43:15;101080.53;;;1.17;95.08
13690;BME280;6917;52.194;9.894;2023-01-29T14:45:48;101088.63;;;1.17;95.31
13690;BME280;6917;52.194;9.894;2023-01-29T14:48:37;101086.16;;;1.16;95.21
13690;BME280;6917;52.194;9.894;2023-01-29T14:51:11;101082.84;;;1.14;95.84
13690;BME280;6917;52.194;9.894;2023-01-29T14:53:52;101080.41;;;1.12;96.43
13690;BME280;6917;52.194;9.894;2023-01-29T14:56:55;101082.50;;;1.10;96.63